Flight Track Log - Related Links

Times and Time Zones

All times are in EDT time to prevent confusion due to time zone crossing. See the N983CA flight status page for this flight to view local times or setup timezone preferences in your user account.

Time Position Orientation Groundspeed Altitude Reporting Facility
EDT Latitude Longitude Course Direction KTS MPH feet Rate Location/Type
Fri 11:08:53 AM 40.7778 -111.9975 102° East 165 190 4,800  Level Salt Lake Center
Fri 11:09:23 AM 40.7567 -112.0106 205° Southwest 171 197 5,800 1,912 Climbing Salt Lake Center
Fri 11:10:24 AM 40.7628 -112.0850 276° West 230 265 7,700 1,966 Climbing Salt Lake Center
Fri 11:11:00 AM 40.9448 -112.2320 349° North  Level FlightAware Approximate
Fri 11:11:22 AM 40.8053 -112.1306 321° Northwest 257 296 9,700  Level Salt Lake Center
Fri 11:12:00 AM 41.0096 -112.1568 81° East  Level FlightAware Approximate
Fri 11:12:24 AM 40.8694 -112.2117 316° Northwest 265 305 13,000  Level Salt Lake Center
Fri 11:13:00 AM 40.9980 -112.0108 114° Southeast  Level FlightAware Approximate
Fri 11:13:26 AM 40.9403 -112.2369 345° North 263 303 15,600  Level Salt Lake Center
Fri 11:14:00 AM 40.9667 -111.8665 102° East  Level FlightAware Approximate
Fri 11:14:28 AM 41.0119 -112.2114 15° North 290 334 17,100  Level Salt Lake Center
Fri 11:15:30 AM 41.0264 -112.0933 81° East 330 380 18,300 1,440 Climbing Salt Lake Center
Fri 11:16:33 AM 40.9961 -111.9758 109° East 343 395 20,100 1,872 Climbing Salt Lake Center
Fri 11:17:35 AM 40.9681 -111.8339 105° East 345 397 22,200 1,694 Climbing Salt Lake Center
Fri 11:18:37 AM 40.9433 -111.7136 105° East 348 400 23,600 1,258 Climbing Salt Lake Center
Fri 11:19:39 AM 40.9225 -111.5867 102° East 358 412 24,800 1,161 Climbing Salt Lake Center
Fri 11:20:41 AM 40.9136 -111.4556 95° East 361 415 26,000 1,065 Climbing Salt Lake Center
Fri 11:21:43 AM 40.9008 -111.3203 97° East 372 428 27,000 1,161 Climbing Salt Lake Center
Fri 11:22:45 AM 40.8808 -111.1581 99° East 374 430 28,400 1,161 Climbing Salt Lake Center
Fri 11:23:47 AM 40.8636 -111.0222 99° East 376 433 29,400 823 Climbing Salt Lake Center
Fri 11:24:49 AM 40.8478 -110.8858 99° East 377 434 30,100 677 Climbing Salt Lake Center
Fri 11:25:51 AM 40.8289 -110.7489 100° East 378 435 30,800 435 Climbing Salt Lake Center
Fri 11:26:53 AM 40.8086 -110.5919 100° East 385 443 31,000 97 Climbing Salt Lake Center
Fri 11:27:55 AM 40.7947 -110.4542 98° East 392 451 31,000  Level Salt Lake Center
Fri 11:28:57 AM 40.7742 -110.2953 100° East 394 453 31,000  Level Salt Lake Center
Fri 11:29:59 AM 40.7556 -110.1583 100° East 394 453 31,000  Level Salt Lake Center
Fri 11:31:01 AM 40.7383 -109.9989 98° East 394 453 31,000  Level Salt Lake Center
Fri 11:32:03 AM 40.7294 -109.8611 95° East 394 453 31,000  Level Salt Lake Center
Fri 11:33:05 AM 40.7169 -109.6964 96° East 402 463 31,000  Level Salt Lake Center
Fri 11:34:07 AM 40.7075 -109.5553 95° East 405 466 31,000  Level Salt Lake Center
Fri 11:35:09 AM 40.6967 -109.4158 96° East 401 461 31,000  Level Salt Lake Center
Fri 11:36:11 AM 40.6839 -109.2533 96° East 398 458 31,000  Level Salt Lake Center
Fri 11:37:13 AM 40.6728 -109.0975 95° East 398 458 31,000  Level Salt Lake Center
Fri 11:38:15 AM 40.6614 -108.9614 96° East 395 455 31,000  Level Salt Lake Center
Fri 11:38:54 AM 40.6539 -108.8603 96° East 392 451 31,000  Level Denver Center
Fri 11:39:56 AM 40.6436 -108.7233 96° East 392 451 31,000  Level Denver Center
Fri 11:40:58 AM 40.6300 -108.5633 96° East 392 451 31,000  Level Denver Center
Fri 11:41:21 AM 40.6250 -108.5094 97° East 392 451 31,000  Level Salt Lake Center
Fri 11:42:00 AM 40.6186 -108.4297 96° East 386 444 31,000  Level Denver Center
Fri 11:42:23 AM 40.6139 -108.3739 96° East 390 449 31,000  Level Salt Lake Center
Fri 11:43:25 AM 40.6006 -108.2161 96° East 390 449 31,000  Level Salt Lake Center
Fri 11:44:27 AM 40.5892 -108.0817 96° East 389 448 31,000  Level Salt Lake Center
Fri 11:45:07 AM 40.5808 -107.9769 96° East 388 447 31,000  Level Denver Center
Fri 11:46:09 AM 40.5703 -107.8425 96° East 387 445 31,000  Level Denver Center
Fri 11:47:11 AM 40.5586 -107.6847 96° East 387 445 31,000  Level Denver Center
Fri 11:48:13 AM 40.5464 -107.5497 97° East 388 447 31,000  Level Denver Center
Fri 11:49:15 AM 40.5361 -107.4136 96° East 389 448 31,000  Level Denver Center
Fri 11:50:17 AM 40.5233 -107.2558 96° East 390 449 31,000  Level Denver Center
Fri 11:51:19 AM 40.5119 -107.1247 96° East 393 452 31,000  Level Denver Center
Fri 11:52:21 AM 40.4992 -106.9797 97° East 397 457 31,000  Level Denver Center
Fri 11:53:23 AM 40.4844 -106.8039 96° East 401 461 31,000  Level Denver Center
Fri 11:54:25 AM 40.4714 -106.6575 97° East 401 461 31,000  Level Denver Center
Fri 11:55:27 AM 40.4583 -106.5092 97° East 406 467 31,000  Level Denver Center
Fri 11:56:29 AM 40.4431 -106.3489 97° East 407 468 31,000  Level Denver Center
Fri 11:57:31 AM 40.4306 -106.2072 97° East 409 471 31,000 -194 Level Denver Center
Fri 11:58:33 AM 40.4150 -106.0414 97° East 404 465 30,600 -1,452 Descending Denver Center
Fri 11:59:35 AM 40.4019 -105.8942 97° East 403 464 28,000 -2,516 Descending Denver Center
Fri 12:00:37 PM 40.3861 -105.7511 98° East 395 455 25,400 -2,371 Descending Denver Center
Fri 12:01:39 PM 40.3736 -105.6094 97° East 388 447 23,100 -2,081 Descending Denver Center
Fri 12:02:41 PM 40.3594 -105.4797 98° East 361 415 21,100 -1,872 Descending Denver Center
Fri 12:03:44 PM 40.3106 -105.3644 119° Southeast 339 390 19,200 -1,872 Descending Denver Center
Fri 12:04:46 PM 40.2456 -105.2639 130° Southeast 334 384 17,200 -1,887 Descending Denver Center
Fri 12:05:48 PM 40.1864 -105.1703 130° Southeast 331 381 15,300 -1,129 Descending Denver Center
Fri 12:07:52 PM 40.0683 -104.9881 130° Southeast 313 360 13,700 -710 Descending Denver Center
Fri 12:08:54 PM 40.0117 -104.9008 130° Southeast 315 362 13,100 -774 Descending Denver Center
Fri 12:09:56 PM 39.9483 -104.8139 134° Southeast 315 362 12,100 -968 Descending Denver Center
Fri 12:10:58 PM 39.8706 -104.8078 177° South 285 328 11,100 -532 Descending Denver Center
Fri 12:12:00 PM 39.7914 -104.8100 181° South 263 303 11,000 -532 Descending Denver Center
Fri 12:13:02 PM 39.7242 -104.7917 168° South 261 300 10,000 -968 Descending Denver Center
Fri 12:14:04 PM 39.7033 -104.7189 110° East 208 239 9,000 -1,161 Descending Denver Center
Fri 12:15:06 PM 39.7578 -104.6906 22° Northeast 209 241 7,600 -1,355 Descending Denver Center

Login

Don't have an account? Register now (free) for customized features, flight alerts, and more!